createdAt,value
2022-08-02T00:00:35.436Z,1.00
2022-08-02T00:03:03.677Z,1.00
2022-08-02T00:05:31.919Z,1.00
2022-08-02T00:08:01.546Z,1.00
2022-08-02T00:10:30.543Z,1.00
2022-08-02T00:12:59.003Z,1.00
2022-08-02T00:15:27.395Z,1.00
2022-08-02T00:17:55.699Z,1.00
2022-08-02T00:20:23.917Z,1.00
2022-08-02T00:22:52.147Z,1.00
2022-08-02T00:25:22.039Z,2.80
2022-08-02T00:27:50.351Z,4.00
2022-08-02T00:30:18.562Z,4.80
2022-08-02T00:32:46.760Z,5.20
2022-08-02T00:35:15.508Z,4.60
2022-08-02T00:37:43.840Z,5.00
2022-08-02T00:40:13.030Z,5.40
2022-08-02T00:42:44.224Z,6.00
2022-08-02T00:45:12.576Z,6.10
2022-08-02T00:47:40.810Z,6.30
2022-08-02T00:50:10.025Z,6.70
2022-08-02T00:52:38.265Z,6.70
2022-08-02T00:55:07.881Z,6.40
2022-08-02T00:57:37.229Z,6.00
2022-08-02T01:00:08.926Z,5.60
2022-08-02T01:02:37.249Z,5.20
2022-08-02T01:05:05.948Z,4.80
2022-08-02T01:07:34.192Z,4.60
2022-08-02T01:10:02.756Z,4.20
2022-08-02T01:12:31.026Z,4.10
2022-08-02T01:15:03.972Z,4.30
2022-08-02T01:17:37.891Z,4.50
2022-08-02T01:20:13.331Z,4.30
2022-08-02T01:23:16.172Z,4.40
2022-08-02T01:25:57.846Z,4.30
2022-08-02T01:28:34.608Z,4.10
2022-08-02T01:31:05.709Z,4.20
2022-08-02T01:33:38.003Z,4.00
2022-08-02T01:36:07.397Z,4.60
2022-08-02T01:38:39.144Z,4.60
2022-08-02T01:41:08.197Z,4.80
2022-08-02T01:43:37.781Z,4.90
2022-08-02T01:46:05.982Z,4.40
2022-08-02T01:48:34.189Z,4.10
2022-08-02T01:51:02.422Z,3.80
2022-08-02T01:53:30.680Z,3.50
2022-08-02T01:56:00.118Z,3.00
2022-08-02T01:58:30.894Z,2.90
2022-08-02T02:01:00.940Z,3.50
2022-08-02T02:03:30.197Z,4.00
2022-08-02T02:05:59.062Z,4.70
2022-08-02T02:08:30.933Z,5.10
2022-08-02T02:12:08.695Z,5.50
2022-08-02T02:13:47.456Z,5.50
2022-08-02T02:16:18.461Z,5.30
2022-08-02T02:18:46.697Z,6.40
2022-08-02T02:21:16.654Z,6.30
2022-08-02T02:23:44.850Z,6.50
2022-08-02T02:26:14.911Z,6.70
2022-08-02T02:28:45.846Z,6.80
2022-08-02T02:31:17.992Z,7.50
2022-08-02T02:33:50.937Z,6.80
2022-08-02T02:36:20.369Z,6.30
2022-08-02T02:38:48.702Z,6.30
2022-08-02T02:41:16.965Z,5.00
2022-08-02T02:43:45.601Z,4.40
2022-08-02T02:46:13.780Z,5.30
2022-08-02T02:48:42.004Z,5.20
2022-08-02T02:51:14.075Z,4.70
2022-08-02T02:54:32.813Z,5.10
2022-08-02T02:56:30.906Z,4.60
2022-08-02T02:59:00.749Z,4.40
2022-08-02T03:01:55.473Z,4.70
2022-08-02T03:04:17.543Z,4.90
2022-08-02T03:06:47.190Z,4.70
2022-08-02T03:09:15.417Z,5.00
2022-08-02T03:11:43.716Z,4.90
2022-08-02T03:14:12.725Z,4.30
2022-08-02T03:16:45.049Z,3.70
2022-08-02T03:19:13.327Z,3.20
2022-08-02T03:21:42.500Z,1.00
2022-08-02T03:24:12.528Z,1.40
2022-08-02T03:26:40.890Z,1.00
2022-08-02T03:29:10.086Z,1.00
2022-08-02T03:31:40.624Z,1.00
2022-08-02T03:34:08.937Z,1.00
2022-08-02T03:36:37.120Z,1.00
2022-08-02T03:39:05.591Z,1.00
2022-08-02T03:41:37.348Z,1.00
2022-08-02T03:44:06.360Z,1.00
2022-08-02T03:46:34.623Z,1.00
2022-08-02T03:49:02.874Z,1.00
2022-08-02T03:51:31.131Z,1.00
2022-08-02T03:53:59.292Z,1.00
2022-08-02T03:56:27.520Z,1.00
2022-08-02T03:59:09.881Z,1.00
2022-08-02T04:01:38.043Z,1.00
2022-08-02T04:04:07.012Z,1.00
2022-08-02T04:06:35.439Z,1.00
2022-08-02T04:09:08.625Z,1.00
2022-08-02T04:11:37.926Z,1.00
2022-08-02T04:14:10.420Z,1.00
2022-08-02T04:16:43.679Z,1.00
2022-08-02T04:19:15.486Z,1.00
2022-08-02T04:21:51.882Z,1.00
2022-08-02T04:24:22.962Z,1.00
2022-08-02T04:26:54.656Z,1.00
2022-08-02T04:29:27.808Z,1.00
2022-08-02T04:31:56.057Z,1.00
2022-08-02T04:34:24.339Z,1.00
2022-08-02T04:36:52.552Z,1.00
2022-08-02T04:39:20.895Z,1.00
2022-08-02T04:41:49.106Z,1.00
2022-08-02T04:44:17.369Z,1.00
2022-08-02T04:46:47.048Z,1.00
2022-08-02T04:49:15.335Z,1.00
2022-08-02T04:51:44.384Z,1.00
2022-08-02T04:54:12.870Z,1.00
2022-08-02T04:56:41.219Z,1.00
2022-08-02T04:59:09.647Z,1.00
2022-08-02T05:01:39.280Z,1.00
2022-08-02T05:04:08.889Z,1.00
2022-08-02T05:06:37.107Z,1.00
2022-08-02T05:09:05.401Z,1.00
2022-08-02T05:11:36.383Z,1.00
2022-08-02T05:14:06.228Z,1.00
2022-08-02T05:16:35.254Z,1.00
2022-08-02T05:19:03.579Z,1.00
2022-08-02T05:21:33.221Z,1.00
2022-08-02T05:24:01.429Z,1.00
2022-08-02T05:26:29.637Z,1.00
2022-08-02T05:28:57.902Z,1.00
2022-08-02T05:31:26.518Z,1.00
2022-08-02T05:33:54.750Z,1.00
2022-08-02T05:36:23.073Z,1.00
2022-08-02T05:38:59.588Z,1.00
2022-08-02T05:41:33.122Z,1.00
2022-08-02T05:44:01.744Z,1.00
2022-08-02T05:46:29.963Z,1.00
2022-08-02T05:48:58.717Z,1.00
2022-08-02T05:51:37.103Z,1.00
2022-08-02T05:54:14.054Z,1.00
2022-08-02T05:56:47.899Z,1.00
2022-08-02T05:59:23.957Z,1.00
2022-08-02T06:01:54.954Z,1.00
2022-08-02T06:04:26.957Z,1.00
2022-08-02T06:06:57.210Z,1.00
2022-08-02T06:09:27.481Z,1.00
2022-08-02T06:12:02.622Z,1.00
2022-08-02T06:14:33.260Z,1.00
2022-08-02T06:17:02.160Z,1.00
2022-08-02T06:19:50.865Z,1.00
2022-08-02T06:22:42.131Z,1.00
2022-08-02T06:25:48.347Z,1.00
2022-08-02T06:27:59.960Z,1.00
2022-08-02T06:30:28.278Z,1.00
2022-08-02T06:32:56.491Z,1.00
2022-08-02T06:35:26.157Z,1.00
2022-08-02T06:37:59.051Z,1.00
2022-08-02T06:40:32.303Z,1.00
2022-08-02T06:43:10.144Z,1.00
2022-08-02T06:45:38.419Z,1.00
2022-08-02T06:48:07.827Z,1.00
2022-08-02T06:50:38.217Z,1.00
2022-08-02T06:53:06.556Z,1.00
2022-08-02T06:55:43.592Z,1.00
2022-08-02T06:58:13.301Z,1.00
2022-08-02T07:00:41.805Z,1.00
2022-08-02T07:03:10.091Z,1.00
2022-08-02T07:05:38.441Z,1.00
2022-08-02T07:08:06.736Z,1.00
2022-08-02T07:10:36.365Z,1.00
2022-08-02T07:13:04.614Z,1.00
2022-08-02T07:15:32.852Z,1.00
2022-08-02T07:18:01.127Z,1.00
2022-08-02T07:20:29.690Z,1.00
2022-08-02T07:22:57.910Z,1.00
2022-08-02T07:25:26.169Z,1.00
2022-08-02T07:28:23.650Z,1.00
2022-08-02T07:30:52.754Z,1.00
2022-08-02T07:33:37.395Z,1.00
2022-08-02T07:36:09.768Z,1.00
2022-08-02T07:38:51.261Z,1.00
2022-08-02T07:41:21.512Z,1.00
2022-08-02T07:43:52.753Z,1.00
2022-08-02T07:46:20.971Z,1.00
2022-08-02T07:48:49.353Z,1.00
2022-08-02T07:51:17.618Z,1.00
2022-08-02T07:53:50.787Z,1.00
2022-08-02T07:56:20.129Z,1.00
2022-08-02T07:58:48.689Z,1.00
2022-08-02T08:01:18.588Z,1.00
2022-08-02T08:03:47.018Z,1.00
2022-08-02T08:06:15.266Z,1.00
2022-08-02T08:08:44.652Z,1.00
2022-08-02T08:11:12.864Z,1.00
2022-08-02T08:13:41.093Z,1.00
2022-08-02T08:16:09.361Z,1.00
2022-08-02T08:18:38.941Z,1.00
2022-08-02T08:21:07.265Z,1.00
2022-08-02T08:23:36.245Z,1.00
2022-08-02T08:26:04.556Z,1.00
2022-08-02T08:28:32.816Z,1.00
2022-08-02T08:31:01.386Z,1.00
2022-08-02T08:33:29.731Z,1.00
2022-08-02T08:35:59.257Z,1.00
2022-08-02T08:38:31.862Z,1.00
2022-08-02T08:41:00.142Z,1.00
2022-08-02T08:43:28.429Z,1.00
2022-08-02T08:45:56.888Z,1.00
2022-08-02T08:48:31.204Z,1.00
2022-08-02T08:51:05.857Z,1.00
2022-08-02T08:53:36.889Z,1.00
2022-08-02T08:56:06.005Z,1.00
2022-08-02T08:58:34.281Z,1.00
2022-08-02T09:01:02.626Z,1.00
2022-08-02T09:03:34.071Z,1.00
2022-08-02T09:06:05.105Z,1.00
2022-08-02T09:08:33.424Z,1.00
2022-08-02T09:11:01.697Z,1.00
2022-08-02T09:13:44.906Z,1.00
2022-08-02T09:16:15.072Z,1.00
2022-08-02T09:18:46.145Z,1.00
2022-08-02T09:21:17.546Z,1.00
2022-08-02T09:23:46.938Z,1.00
2022-08-02T09:26:16.161Z,1.00
2022-08-02T09:28:46.525Z,1.00
2022-08-02T09:31:16.088Z,1.00
2022-08-02T09:33:45.554Z,1.00
2022-08-02T09:36:16.257Z,1.00
2022-08-02T09:38:55.689Z,1.00
2022-08-02T09:41:25.931Z,1.00
2022-08-02T09:44:04.325Z,1.00
2022-08-02T09:46:38.133Z,1.00
2022-08-02T09:49:09.478Z,1.00
2022-08-02T09:51:41.167Z,1.00
2022-08-02T09:54:11.866Z,1.00
2022-08-02T09:56:49.546Z,1.00
2022-08-02T09:59:18.731Z,1.00
2022-08-02T10:01:51.071Z,1.00
2022-08-02T10:04:28.595Z,1.00
2022-08-02T10:06:59.696Z,1.00
2022-08-02T10:09:28.782Z,1.00
2022-08-02T10:11:57.059Z,1.00
2022-08-02T10:14:25.255Z,1.00
2022-08-02T10:16:53.474Z,1.00
2022-08-02T10:20:02.373Z,1.00
2022-08-02T10:22:13.997Z,1.00
2022-08-02T10:24:47.654Z,1.00
2022-08-02T10:27:19.732Z,1.00
2022-08-02T10:29:54.762Z,1.00
2022-08-02T10:32:27.788Z,1.00
2022-08-02T10:34:58.127Z,1.00
2022-08-02T10:37:39.365Z,1.00
2022-08-02T10:40:23.024Z,1.00
2022-08-02T10:42:52.322Z,1.00
2022-08-02T10:45:24.116Z,1.00
2022-08-02T10:48:04.043Z,1.00
2022-08-02T10:50:57.074Z,1.00
2022-08-02T10:53:30.522Z,1.00
2022-08-02T10:56:00.186Z,1.00
2022-08-02T10:58:30.464Z,1.00
2022-08-02T11:00:59.458Z,1.00
2022-08-02T11:03:40.331Z,1.00
2022-08-02T11:06:25.318Z,1.00
2022-08-02T11:09:32.249Z,1.00
2022-08-02T11:12:05.813Z,1.00
2022-08-02T11:14:35.701Z,1.00
2022-08-02T11:17:14.843Z,1.00
2022-08-02T11:20:21.033Z,1.00
2022-08-02T11:22:50.437Z,1.00
2022-08-02T11:26:02.614Z,1.00
2022-08-02T11:28:27.145Z,1.00
2022-08-02T11:30:59.138Z,1.00
2022-08-02T11:33:33.027Z,1.00
2022-08-02T11:36:05.992Z,1.00
2022-08-02T11:38:34.225Z,1.00
2022-08-02T11:41:06.243Z,1.00
2022-08-02T11:43:38.425Z,1.00
2022-08-02T11:46:06.762Z,1.00
2022-08-02T11:48:36.130Z,1.00
2022-08-02T11:51:09.627Z,1.00
2022-08-02T11:53:49.558Z,1.00
2022-08-02T11:56:24.865Z,1.00
2022-08-02T11:59:05.034Z,1.00
2022-08-02T12:01:36.712Z,1.00
2022-08-02T12:04:14.371Z,1.00
2022-08-02T12:06:43.765Z,1.00
2022-08-02T12:09:18.052Z,1.00
2022-08-02T12:11:51.502Z,1.00
2022-08-02T12:14:20.219Z,1.00
2022-08-02T12:17:06.329Z,1.00
2022-08-02T12:19:34.673Z,1.00
2022-08-02T12:22:14.963Z,1.00
2022-08-02T12:24:46.659Z,1.00
2022-08-02T12:30:11.130Z,1.00
2022-08-02T12:32:39.604Z,1.00
2022-08-02T12:35:13.081Z,1.00
2022-08-02T12:37:42.581Z,1.00
2022-08-02T12:40:26.449Z,1.00
2022-08-02T12:42:58.501Z,1.00
2022-08-02T12:45:38.515Z,1.00
2022-08-02T12:48:10.966Z,1.00
2022-08-02T12:50:39.642Z,1.00
2022-08-02T12:53:09.614Z,1.00
2022-08-02T12:56:00.040Z,1.00
2022-08-02T12:58:30.122Z,1.00
2022-08-02T13:01:00.914Z,1.00
2022-08-02T13:04:10.898Z,1.00
2022-08-02T13:06:39.518Z,1.00
2022-08-02T13:09:14.016Z,1.00
2022-08-02T13:11:43.353Z,1.00
2022-08-02T13:14:12.534Z,1.00
2022-08-02T13:16:42.502Z,1.00
2022-08-02T13:19:10.712Z,1.00
2022-08-02T13:21:41.606Z,1.00
2022-08-02T13:24:40.547Z,1.00
2022-08-02T13:27:15.472Z,1.00
2022-08-02T13:29:43.638Z,1.00
2022-08-02T13:32:13.389Z,1.00
2022-08-02T13:34:41.840Z,1.00
2022-08-02T13:37:10.486Z,1.00
2022-08-02T13:39:38.728Z,1.00
2022-08-02T13:42:07.189Z,1.00
2022-08-02T13:44:35.489Z,1.00
2022-08-02T13:47:03.833Z,1.00
2022-08-02T13:49:50.859Z,1.00
2022-08-02T13:52:21.613Z,1.00
2022-08-02T13:54:49.940Z,1.00
2022-08-02T13:57:18.185Z,1.00
2022-08-02T13:59:57.317Z,1.00
2022-08-02T14:02:28.301Z,1.00
2022-08-02T14:04:58.233Z,1.00
2022-08-02T14:07:26.454Z,1.00
2022-08-02T14:09:54.669Z,1.00
2022-08-02T14:12:22.935Z,1.00
2022-08-02T14:14:51.682Z,1.00
2022-08-02T14:17:20.025Z,1.00
2022-08-02T14:19:48.270Z,1.00
2022-08-02T14:22:17.926Z,1.00
2022-08-02T14:24:46.192Z,1.00
2022-08-02T14:27:15.629Z,1.00
2022-08-02T14:29:43.850Z,1.00
2022-08-02T14:32:12.401Z,1.00
2022-08-02T14:34:40.890Z,1.00
2022-08-02T14:37:09.153Z,1.00
2022-08-02T14:39:43.066Z,1.00
2022-08-02T14:42:26.957Z,1.00
2022-08-02T14:44:55.340Z,1.00
2022-08-02T14:47:23.590Z,1.00
2022-08-02T14:49:51.850Z,1.00
2022-08-02T14:52:20.410Z,1.00
2022-08-02T14:54:49.972Z,1.00
2022-08-02T14:57:18.230Z,1.00
2022-08-02T14:59:47.310Z,1.00
2022-08-02T15:02:16.088Z,1.00
2022-08-02T15:04:44.599Z,1.00
2022-08-02T15:07:15.277Z,1.00
2022-08-02T15:09:43.616Z,1.00
2022-08-02T15:12:13.328Z,1.00
2022-08-02T15:14:41.707Z,1.00
2022-08-02T15:17:10.232Z,1.00
2022-08-02T15:19:57.845Z,1.00
2022-08-02T15:22:27.138Z,1.00
2022-08-02T15:24:57.128Z,1.00
2022-08-02T15:27:26.714Z,1.00
2022-08-02T15:30:00.262Z,1.00
2022-08-02T15:32:28.862Z,1.00
2022-08-02T15:34:57.196Z,1.00
2022-08-02T15:37:25.928Z,1.00
2022-08-02T15:39:59.872Z,1.00
2022-08-02T15:42:30.206Z,1.00
2022-08-02T15:45:00.134Z,1.00
2022-08-02T15:47:28.436Z,1.00
2022-08-02T15:49:56.780Z,1.00
2022-08-02T15:52:27.079Z,1.00
2022-08-02T15:54:55.773Z,1.00
2022-08-02T15:57:24.101Z,1.00
2022-08-02T15:59:54.281Z,1.00
2022-08-02T16:02:22.601Z,1.00
2022-08-02T16:04:50.805Z,1.00
2022-08-02T16:07:19.146Z,1.00
2022-08-02T16:09:47.335Z,1.00
2022-08-02T16:12:16.092Z,1.00
2022-08-02T16:14:45.709Z,1.00
2022-08-02T16:17:15.369Z,1.00
2022-08-02T16:20:03.864Z,1.00
2022-08-02T16:22:32.183Z,1.00
2022-08-02T16:25:00.566Z,1.00
2022-08-02T16:27:28.815Z,1.00
2022-08-02T16:29:58.997Z,1.00
2022-08-02T16:32:28.562Z,1.00
2022-08-02T16:35:07.661Z,1.00
2022-08-02T16:37:51.743Z,1.00
2022-08-02T16:40:21.355Z,1.00
2022-08-02T16:42:50.577Z,1.00
2022-08-02T16:45:20.955Z,1.00
2022-08-02T16:47:57.512Z,1.00
2022-08-02T16:50:29.455Z,1.00
2022-08-02T16:52:58.823Z,1.00
2022-08-02T16:55:30.459Z,1.00
2022-08-02T16:57:59.333Z,1.00
2022-08-02T17:00:27.591Z,1.00
2022-08-02T17:02:59.275Z,1.00
2022-08-02T17:05:38.219Z,1.00
2022-08-02T17:08:18.893Z,1.00
2022-08-02T17:10:47.279Z,1.00
2022-08-02T17:13:15.758Z,1.00
2022-08-02T17:16:01.219Z,1.00
2022-08-02T17:18:37.462Z,1.00
2022-08-02T17:21:10.994Z,1.00
2022-08-02T17:24:05.867Z,1.00
2022-08-02T17:26:28.525Z,1.00
2022-08-02T17:29:16.283Z,1.00
2022-08-02T17:32:02.566Z,1.00
2022-08-02T17:34:35.841Z,1.00
2022-08-02T17:37:05.738Z,1.00
2022-08-02T17:39:44.455Z,1.00
2022-08-02T17:42:24.799Z,1.00
2022-08-02T17:44:53.956Z,1.00
2022-08-02T17:47:22.339Z,1.00
2022-08-02T17:49:52.625Z,1.00
2022-08-02T17:52:51.813Z,1.00
2022-08-02T17:55:13.663Z,1.00
2022-08-02T17:57:57.992Z,1.00
2022-08-02T18:00:33.599Z,1.00
2022-08-02T18:05:55.100Z,1.00
2022-08-02T18:08:24.282Z,1.00
2022-08-02T18:10:53.490Z,1.00
2022-08-02T18:13:21.889Z,1.00
2022-08-02T18:15:52.236Z,1.00
2022-08-02T18:18:29.472Z,1.00
2022-08-02T18:21:15.594Z,1.00
2022-08-02T18:26:38.708Z,1.00
2022-08-02T18:29:08.493Z,1.00
2022-08-02T18:31:39.464Z,1.00
2022-08-02T18:34:08.139Z,1.00
2022-08-02T18:36:46.975Z,1.00
2022-08-02T18:39:16.530Z,1.00
2022-08-02T18:41:48.001Z,1.00
2022-08-02T18:44:16.720Z,1.00
2022-08-02T18:46:46.953Z,1.00
2022-08-02T18:49:17.805Z,1.00
2022-08-02T18:51:47.675Z,1.00
2022-08-02T18:54:16.283Z,1.00
2022-08-02T18:56:55.933Z,1.00
2022-08-02T18:59:25.716Z,1.00
2022-08-02T19:01:53.894Z,1.00
2022-08-02T19:04:26.801Z,1.00
2022-08-02T19:07:06.988Z,1.00
2022-08-02T19:09:40.089Z,1.00
2022-08-02T19:12:11.277Z,1.00
2022-08-02T19:14:40.224Z,1.00
2022-08-02T19:17:15.983Z,1.00
2022-08-02T19:19:56.745Z,1.00
2022-08-02T19:22:27.218Z,1.00
2022-08-02T19:25:01.472Z,1.00
2022-08-02T19:27:32.831Z,1.00
2022-08-02T19:30:03.036Z,1.00
2022-08-02T19:32:39.682Z,1.00
2022-08-02T19:35:19.271Z,1.00
2022-08-02T19:38:09.946Z,1.00
2022-08-02T19:40:38.939Z,1.00
2022-08-02T19:44:27.294Z,1.00
2022-08-02T19:45:57.555Z,1.00
2022-08-02T19:48:27.158Z,1.00
2022-08-02T19:51:00.670Z,1.00
2022-08-02T19:53:47.179Z,1.00
2022-08-02T19:56:20.820Z,1.00
2022-08-02T19:58:51.529Z,1.00
2022-08-02T20:01:25.337Z,1.00
2022-08-02T20:03:56.651Z,1.00
2022-08-02T20:06:29.831Z,1.00
2022-08-02T20:09:01.308Z,1.00
2022-08-02T20:11:34.762Z,1.00
2022-08-02T20:14:05.176Z,1.00
2022-08-02T20:16:33.455Z,1.00
2022-08-02T20:19:02.832Z,1.00
2022-08-02T20:21:35.748Z,1.00
2022-08-02T20:24:09.822Z,1.00
2022-08-02T20:26:47.430Z,1.00
2022-08-02T20:29:42.360Z,1.00
2022-08-02T20:32:06.197Z,1.00
2022-08-02T20:34:36.656Z,1.00
2022-08-02T20:39:54.904Z,1.00
2022-08-02T20:42:24.720Z,1.00
2022-08-02T20:44:55.349Z,1.00
2022-08-02T20:47:27.631Z,1.00
2022-08-02T20:50:15.395Z,1.00
2022-08-02T20:52:45.429Z,1.00
2022-08-02T20:55:17.682Z,1.00
2022-08-02T20:57:59.991Z,1.00
2022-08-02T21:00:30.114Z,1.00
2022-08-02T21:02:58.530Z,1.00
2022-08-02T21:05:54.112Z,1.00
2022-08-02T21:08:16.340Z,1.00
2022-08-02T21:10:51.790Z,1.00
2022-08-02T21:13:23.990Z,1.00
2022-08-02T21:15:53.543Z,1.00
2022-08-02T21:18:34.109Z,1.00
2022-08-02T21:21:10.301Z,1.00
2022-08-02T21:23:48.507Z,1.00
2022-08-02T21:26:25.650Z,1.00
2022-08-02T21:28:56.924Z,1.00
2022-08-02T21:31:29.827Z,1.00
2022-08-02T21:34:00.224Z,1.00
2022-08-02T21:36:31.751Z,1.00
2022-08-02T21:39:04.969Z,1.00
2022-08-02T21:41:38.459Z,1.00
2022-08-02T21:44:08.665Z,1.00
2022-08-02T21:46:36.982Z,1.00
2022-08-02T21:49:05.395Z,1.00
2022-08-02T21:51:34.210Z,1.00
2022-08-02T21:54:18.723Z,1.00
2022-08-02T21:56:49.596Z,1.00
2022-08-02T21:59:18.386Z,1.00
2022-08-02T22:01:56.497Z,1.00
2022-08-02T22:04:25.866Z,1.00
2022-08-02T22:06:54.936Z,1.00
2022-08-02T22:09:44.685Z,1.00
2022-08-02T22:12:16.654Z,1.00
2022-08-02T22:14:49.435Z,1.00
2022-08-02T22:17:52.006Z,1.00
2022-08-02T22:20:12.735Z,1.00
2022-08-02T22:22:41.957Z,1.00
2022-08-02T22:25:21.631Z,1.00
2022-08-02T22:28:37.412Z,1.00
2022-08-02T22:30:52.956Z,1.00
2022-08-02T22:34:00.834Z,1.00
2022-08-02T22:36:30.883Z,1.00
2022-08-02T22:38:59.214Z,1.00
2022-08-02T22:42:05.610Z,1.00
2022-08-02T22:44:18.790Z,1.00
2022-08-02T22:46:49.910Z,1.00
2022-08-02T22:49:37.721Z,1.00
2022-08-02T22:52:07.834Z,1.00
2022-08-02T22:54:36.308Z,1.00
2022-08-02T22:57:06.361Z,1.00
2022-08-02T22:58:42.980Z,1.00
2022-08-02T22:58:44.031Z,1.00
2022-08-02T22:58:55.827Z,1.00
2022-08-02T22:59:39.954Z,1.00
2022-08-02T23:02:08.623Z,1.00
2022-08-02T23:04:37.619Z,1.00
2022-08-02T23:07:05.820Z,1.00
2022-08-02T23:09:34.070Z,1.00
2022-08-02T23:12:02.373Z,1.00
2022-08-02T23:14:30.748Z,1.00
2022-08-02T23:17:17.645Z,1.00
2022-08-02T23:19:51.966Z,1.00
2022-08-02T23:22:20.527Z,1.00
2022-08-02T23:24:52.062Z,1.00
2022-08-02T23:27:21.398Z,1.00
2022-08-02T23:29:49.814Z,1.00
2022-08-02T23:32:22.783Z,1.00
2022-08-02T23:34:54.674Z,1.00
2022-08-02T23:37:23.630Z,1.00
2022-08-02T23:39:51.897Z,1.00
2022-08-02T23:42:20.219Z,1.00
2022-08-02T23:44:48.458Z,1.00
2022-08-02T23:47:18.063Z,1.00
2022-08-02T23:49:46.376Z,1.00
2022-08-02T23:52:14.841Z,1.00
2022-08-02T23:54:43.276Z,1.00
2022-08-02T23:57:21.016Z,1.00
2022-08-02T23:59:51.456Z,1.00
